Aviation Digital Data Service (ADDS)

Output produced by TAFs form (1308 UTC 11 December 2017)
found at http://www.aviationweather.gov/adds/tafs/
 
KCSV 111253Z AUTO 00000KT 10SM CLR M02/M06 A3012 RMK AO2 SLP211 T10221061
KCSV 111135Z 1112/1212 21004KT P6SM FEW250 
     FM111800 21008G14KT P6SM BKN250 
     FM120600 28008KT P6SM BKN100 OVC250 
     FM121000 30008KT 6SM -SHSN BKN025 OVC050